sensor_id;sensor_type;location;lat;lon;timestamp;P1;durP1;ratioP1;P2;durP2;ratioP2
2019;SDS011;1014;51.960;8.542;2023-01-28T00:00:13;23.10;;;21.90;;
2019;SDS011;1014;51.960;8.542;2023-01-28T00:02:40;21.98;;;20.88;;
2019;SDS011;1014;51.960;8.542;2023-01-28T00:05:09;22.20;;;21.10;;
2019;SDS011;1014;51.960;8.542;2023-01-28T00:07:36;23.13;;;21.88;;
2019;SDS011;1014;51.960;8.542;2023-01-28T00:10:03;22.88;;;21.67;;
2019;SDS011;1014;51.960;8.542;2023-01-28T00:12:30;22.13;;;20.90;;
2019;SDS011;1014;51.960;8.542;2023-01-28T00:14:57;23.17;;;21.88;;
2019;SDS011;1014;51.960;8.542;2023-01-28T00:17:24;24.30;;;22.77;;
2019;SDS011;1014;51.960;8.542;2023-01-28T00:19:51;22.10;;;21.00;;
2019;SDS011;1014;51.960;8.542;2023-01-28T00:22:19;22.10;;;21.00;;
2019;SDS011;1014;51.960;8.542;2023-01-28T00:24:46;21.90;;;20.80;;
2019;SDS011;1014;51.960;8.542;2023-01-28T00:27:13;23.15;;;21.20;;
2019;SDS011;1014;51.960;8.542;2023-01-28T00:29:40;21.33;;;20.13;;
2019;SDS011;1014;51.960;8.542;2023-01-28T00:32:07;22.67;;;21.58;;
2019;SDS011;1014;51.960;8.542;2023-01-28T00:34:34;22.80;;;21.50;;
2019;SDS011;1014;51.960;8.542;2023-01-28T00:37:01;21.92;;;20.73;;
2019;SDS011;1014;51.960;8.542;2023-01-28T00:39:30;22.45;;;21.35;;
2019;SDS011;1014;51.960;8.542;2023-01-28T00:41:57;22.17;;;20.98;;
2019;SDS011;1014;51.960;8.542;2023-01-28T00:44:24;22.35;;;21.15;;
2019;SDS011;1014;51.960;8.542;2023-01-28T00:46:51;23.17;;;21.83;;
2019;SDS011;1014;51.960;8.542;2023-01-28T00:49:18;22.73;;;21.50;;
2019;SDS011;1014;51.960;8.542;2023-01-28T00:51:45;22.85;;;21.75;;
2019;SDS011;1014;51.960;8.542;2023-01-28T00:54:13;22.50;;;21.20;;
2019;SDS011;1014;51.960;8.542;2023-01-28T00:56:41;22.90;;;21.70;;
2019;SDS011;1014;51.960;8.542;2023-01-28T00:59:08;21.75;;;20.70;;
2019;SDS011;1014;51.960;8.542;2023-01-28T01:01:35;23.88;;;22.58;;
2019;SDS011;1014;51.960;8.542;2023-01-28T01:04:02;23.60;;;22.45;;
2019;SDS011;1014;51.960;8.542;2023-01-28T01:06:30;21.73;;;20.73;;
2019;SDS011;1014;51.960;8.542;2023-01-28T01:08:57;23.92;;;22.15;;
2019;SDS011;1014;51.960;8.542;2023-01-28T01:11:24;22.60;;;21.30;;
2019;SDS011;1014;51.960;8.542;2023-01-28T01:13:53;22.13;;;20.75;;
2019;SDS011;1014;51.960;8.542;2023-01-28T01:16:21;22.58;;;21.38;;
2019;SDS011;1014;51.960;8.542;2023-01-28T01:18:49;22.13;;;21.00;;
2019;SDS011;1014;51.960;8.542;2023-01-28T01:21:17;23.33;;;22.02;;
2019;SDS011;1014;51.960;8.542;2023-01-28T01:23:44;22.58;;;21.38;;
2019;SDS011;1014;51.960;8.542;2023-01-28T01:26:12;24.13;;;22.73;;
2019;SDS011;1014;51.960;8.542;2023-01-28T01:28:39;22.38;;;21.25;;
2019;SDS011;1014;51.960;8.542;2023-01-28T01:31:09;22.65;;;21.45;;
2019;SDS011;1014;51.960;8.542;2023-01-28T01:33:38;22.65;;;21.55;;
2019;SDS011;1014;51.960;8.542;2023-01-28T01:36:05;22.83;;;21.52;;
2019;SDS011;1014;51.960;8.542;2023-01-28T01:38:32;23.67;;;22.27;;
2019;SDS011;1014;51.960;8.542;2023-01-28T01:40:59;22.63;;;21.27;;
2019;SDS011;1014;51.960;8.542;2023-01-28T01:46:10;24.23;;;22.50;;
2019;SDS011;1014;51.960;8.542;2023-01-28T01:48:37;23.08;;;21.90;;
2019;SDS011;1014;51.960;8.542;2023-01-28T01:51:05;25.92;;;23.90;;
2019;SDS011;1014;51.960;8.542;2023-01-28T01:53:33;22.85;;;21.40;;
2019;SDS011;1014;51.960;8.542;2023-01-28T01:56:01;23.58;;;22.08;;
2019;SDS011;1014;51.960;8.542;2023-01-28T01:58:31;86.15;;;38.67;;
2019;SDS011;1014;51.960;8.542;2023-01-28T02:00:59;22.60;;;21.40;;
2019;SDS011;1014;51.960;8.542;2023-01-28T02:03:28;22.52;;;21.42;;
2019;SDS011;1014;51.960;8.542;2023-01-28T02:05:57;22.92;;;21.67;;
2019;SDS011;1014;51.960;8.542;2023-01-28T02:08:24;23.48;;;22.08;;
2019;SDS011;1014;51.960;8.542;2023-01-28T02:10:52;23.48;;;22.27;;
2019;SDS011;1014;51.960;8.542;2023-01-28T02:13:21;22.45;;;21.25;;
2019;SDS011;1014;51.960;8.542;2023-01-28T02:15:48;22.67;;;21.50;;
2019;SDS011;1014;51.960;8.542;2023-01-28T02:18:15;24.10;;;22.58;;
2019;SDS011;1014;51.960;8.542;2023-01-28T02:20:49;26.52;;;24.58;;
2019;SDS011;1014;51.960;8.542;2023-01-28T02:23:20;23.42;;;22.08;;
2019;SDS011;1014;51.960;8.542;2023-01-28T02:26:16;24.42;;;22.92;;
2019;SDS011;1014;51.960;8.542;2023-01-28T02:28:51;23.17;;;21.98;;
2019;SDS011;1014;51.960;8.542;2023-01-28T02:31:22;23.98;;;22.58;;
2019;SDS011;1014;51.960;8.542;2023-01-28T02:33:51;23.08;;;21.48;;
2019;SDS011;1014;51.960;8.542;2023-01-28T02:36:27;27.05;;;24.65;;
2019;SDS011;1014;51.960;8.542;2023-01-28T02:38:57;23.15;;;21.85;;
2019;SDS011;1014;51.960;8.542;2023-01-28T02:41:28;22.33;;;21.00;;
2019;SDS011;1014;51.960;8.542;2023-01-28T02:44:00;23.20;;;21.90;;
2019;SDS011;1014;51.960;8.542;2023-01-28T02:46:34;24.00;;;22.70;;
2019;SDS011;1014;51.960;8.542;2023-01-28T02:49:20;34.35;;;28.17;;
2019;SDS011;1014;51.960;8.542;2023-01-28T02:51:52;23.05;;;21.75;;
2019;SDS011;1014;51.960;8.542;2023-01-28T02:54:27;23.60;;;22.05;;
2019;SDS011;1014;51.960;8.542;2023-01-28T02:56:59;25.02;;;23.30;;
2019;SDS011;1014;51.960;8.542;2023-01-28T02:59:32;24.23;;;22.92;;
2019;SDS011;1014;51.960;8.542;2023-01-28T03:02:05;21.05;;;19.95;;
2019;SDS011;1014;51.960;8.542;2023-01-28T03:04:36;20.67;;;19.58;;
2019;SDS011;1014;51.960;8.542;2023-01-28T03:07:04;22.70;;;21.25;;
2019;SDS011;1014;51.960;8.542;2023-01-28T03:09:32;22.63;;;21.42;;
2019;SDS011;1014;51.960;8.542;2023-01-28T03:12:02;22.25;;;20.95;;
2019;SDS011;1014;51.960;8.542;2023-01-28T03:14:49;22.85;;;21.60;;
2019;SDS011;1014;51.960;8.542;2023-01-28T03:17:36;22.42;;;21.15;;
2019;SDS011;1014;51.960;8.542;2023-01-28T03:20:23;23.67;;;22.38;;
2019;SDS011;1014;51.960;8.542;2023-01-28T03:23:09;27.20;;;25.13;;
2019;SDS011;1014;51.960;8.542;2023-01-28T03:25:55;21.85;;;20.70;;
2019;SDS011;1014;51.960;8.542;2023-01-28T03:28:42;27.50;;;25.08;;
2019;SDS011;1014;51.960;8.542;2023-01-28T03:31:30;26.77;;;24.73;;
2019;SDS011;1014;51.960;8.542;2023-01-28T03:34:15;22.77;;;21.67;;
2019;SDS011;1014;51.960;8.542;2023-01-28T03:37:00;26.40;;;24.15;;
2019;SDS011;1014;51.960;8.542;2023-01-28T03:39:28;92.75;;;40.63;;
2019;SDS011;1014;51.960;8.542;2023-01-28T03:41:56;22.92;;;21.73;;
2019;SDS011;1014;51.960;8.542;2023-01-28T03:44:24;22.70;;;21.45;;
2019;SDS011;1014;51.960;8.542;2023-01-28T03:47:11;23.10;;;21.80;;
2019;SDS011;1014;51.960;8.542;2023-01-28T03:49:39;24.40;;;22.50;;
2019;SDS011;1014;51.960;8.542;2023-01-28T03:52:05;22.60;;;21.17;;
2019;SDS011;1014;51.960;8.542;2023-01-28T03:54:32;24.00;;;22.50;;
2019;SDS011;1014;51.960;8.542;2023-01-28T03:56:59;22.50;;;21.30;;
2019;SDS011;1014;51.960;8.542;2023-01-28T03:59:27;23.77;;;22.10;;
2019;SDS011;1014;51.960;8.542;2023-01-28T04:01:54;22.20;;;21.00;;
2019;SDS011;1014;51.960;8.542;2023-01-28T04:04:23;22.63;;;21.33;;
2019;SDS011;1014;51.960;8.542;2023-01-28T04:06:50;136.73;;;49.45;;
2019;SDS011;1014;51.960;8.542;2023-01-28T04:09:17;82.25;;;38.83;;
2019;SDS011;1014;51.960;8.542;2023-01-28T04:11:44;214.43;;;80.97;;
2019;SDS011;1014;51.960;8.542;2023-01-28T04:14:11;34.60;;;30.33;;
2019;SDS011;1014;51.960;8.542;2023-01-28T04:16:39;23.45;;;22.13;;
2019;SDS011;1014;51.960;8.542;2023-01-28T04:19:06;24.08;;;22.58;;
2019;SDS011;1014;51.960;8.542;2023-01-28T04:21:35;23.08;;;21.88;;
2019;SDS011;1014;51.960;8.542;2023-01-28T04:24:02;24.33;;;23.00;;
2019;SDS011;1014;51.960;8.542;2023-01-28T04:26:29;40.33;;;28.77;;
2019;SDS011;1014;51.960;8.542;2023-01-28T04:28:56;303.00;;;85.85;;
2019;SDS011;1014;51.960;8.542;2023-01-28T04:31:23;26.42;;;24.38;;
2019;SDS011;1014;51.960;8.542;2023-01-28T04:33:50;350.77;;;93.72;;
2019;SDS011;1014;51.960;8.542;2023-01-28T04:36:17;96.57;;;41.92;;
2019;SDS011;1014;51.960;8.542;2023-01-28T04:38:45;349.15;;;92.35;;
2019;SDS011;1014;51.960;8.542;2023-01-28T04:41:12;360.30;;;95.47;;
2019;SDS011;1014;51.960;8.542;2023-01-28T04:43:39;245.93;;;97.00;;
2019;SDS011;1014;51.960;8.542;2023-01-28T04:46:06;333.25;;;99.38;;
2019;SDS011;1014;51.960;8.542;2023-01-28T04:48:33;332.70;;;95.10;;
2019;SDS011;1014;51.960;8.542;2023-01-28T04:51:00;309.05;;;94.38;;
2019;SDS011;1014;51.960;8.542;2023-01-28T04:53:28;326.90;;;117.32;;
2019;SDS011;1014;51.960;8.542;2023-01-28T04:56:00;338.83;;;101.35;;
2019;SDS011;1014;51.960;8.542;2023-01-28T04:58:27;489.25;;;227.43;;
2019;SDS011;1014;51.960;8.542;2023-01-28T05:00:54;338.30;;;128.93;;
2019;SDS011;1014;51.960;8.542;2023-01-28T05:03:22;354.55;;;127.40;;
2019;SDS011;1014;51.960;8.542;2023-01-28T05:05:49;341.95;;;109.45;;
2019;SDS011;1014;51.960;8.542;2023-01-28T05:08:16;327.65;;;103.53;;
2019;SDS011;1014;51.960;8.542;2023-01-28T05:10:43;462.73;;;241.57;;
2019;SDS011;1014;51.960;8.542;2023-01-28T05:13:11;433.83;;;206.55;;
2019;SDS011;1014;51.960;8.542;2023-01-28T05:15:38;393.15;;;138.40;;
2019;SDS011;1014;51.960;8.542;2023-01-28T05:18:05;408.92;;;193.50;;
2019;SDS011;1014;51.960;8.542;2023-01-28T05:20:32;256.73;;;142.18;;
2019;SDS011;1014;51.960;8.542;2023-01-28T05:22:59;46.10;;;37.20;;
2019;SDS011;1014;51.960;8.542;2023-01-28T05:25:26;79.95;;;42.17;;
2019;SDS011;1014;51.960;8.542;2023-01-28T05:27:53;71.07;;;40.47;;
2019;SDS011;1014;51.960;8.542;2023-01-28T05:30:22;26.17;;;24.15;;
2019;SDS011;1014;51.960;8.542;2023-01-28T05:32:49;27.75;;;25.08;;
2019;SDS011;1014;51.960;8.542;2023-01-28T05:35:20;148.65;;;65.40;;
2019;SDS011;1014;51.960;8.542;2023-01-28T05:37:47;33.08;;;26.35;;
2019;SDS011;1014;51.960;8.542;2023-01-28T05:40:14;25.98;;;24.10;;
2019;SDS011;1014;51.960;8.542;2023-01-28T05:42:41;28.38;;;25.52;;
2019;SDS011;1014;51.960;8.542;2023-01-28T05:45:08;33.63;;;26.90;;
2019;SDS011;1014;51.960;8.542;2023-01-28T05:47:37;40.00;;;31.50;;
2019;SDS011;1014;51.960;8.542;2023-01-28T05:50:04;24.48;;;22.88;;
2019;SDS011;1014;51.960;8.542;2023-01-28T05:52:31;27.55;;;25.13;;
2019;SDS011;1014;51.960;8.542;2023-01-28T05:54:58;330.30;;;257.02;;
2019;SDS011;1014;51.960;8.542;2023-01-28T05:57:26;24.23;;;22.85;;
2019;SDS011;1014;51.960;8.542;2023-01-28T05:59:53;70.82;;;46.40;;
2019;SDS011;1014;51.960;8.542;2023-01-28T06:02:20;33.78;;;30.73;;
2019;SDS011;1014;51.960;8.542;2023-01-28T06:04:48;30.17;;;28.17;;
2019;SDS011;1014;51.960;8.542;2023-01-28T06:07:15;97.07;;;56.03;;
2019;SDS011;1014;51.960;8.542;2023-01-28T06:09:44;24.45;;;23.05;;
2019;SDS011;1014;51.960;8.542;2023-01-28T06:12:11;25.73;;;24.00;;
2019;SDS011;1014;51.960;8.542;2023-01-28T06:14:38;25.58;;;24.08;;
2019;SDS011;1014;51.960;8.542;2023-01-28T06:17:05;25.58;;;23.88;;
2019;SDS011;1014;51.960;8.542;2023-01-28T06:19:32;25.38;;;23.77;;
2019;SDS011;1014;51.960;8.542;2023-01-28T06:22:00;25.02;;;23.63;;
2019;SDS011;1014;51.960;8.542;2023-01-28T06:24:27;25.23;;;23.63;;
2019;SDS011;1014;51.960;8.542;2023-01-28T06:26:54;166.57;;;99.68;;
2019;SDS011;1014;51.960;8.542;2023-01-28T06:29:21;24.40;;;22.90;;
2019;SDS011;1014;51.960;8.542;2023-01-28T06:31:48;70.57;;;42.38;;
2019;SDS011;1014;51.960;8.542;2023-01-28T06:34:16;58.97;;;38.97;;
2019;SDS011;1014;51.960;8.542;2023-01-28T06:36:43;25.27;;;23.77;;
2019;SDS011;1014;51.960;8.542;2023-01-28T06:39:11;25.48;;;23.77;;
2019;SDS011;1014;51.960;8.542;2023-01-28T06:41:38;25.35;;;23.88;;
2019;SDS011;1014;51.960;8.542;2023-01-28T06:44:05;25.48;;;23.98;;
2019;SDS011;1014;51.960;8.542;2023-01-28T06:46:32;25.60;;;24.10;;
2019;SDS011;1014;51.960;8.542;2023-01-28T06:48:59;25.17;;;23.70;;
2019;SDS011;1014;51.960;8.542;2023-01-28T06:51:26;25.58;;;24.00;;
2019;SDS011;1014;51.960;8.542;2023-01-28T06:53:53;25.80;;;24.17;;
2019;SDS011;1014;51.960;8.542;2023-01-28T06:56:22;24.48;;;23.08;;
2019;SDS011;1014;51.960;8.542;2023-01-28T06:58:49;26.05;;;24.45;;
2019;SDS011;1014;51.960;8.542;2023-01-28T07:01:16;25.70;;;24.10;;
2019;SDS011;1014;51.960;8.542;2023-01-28T07:03:43;24.73;;;23.23;;
2019;SDS011;1014;51.960;8.542;2023-01-28T07:06:10;25.10;;;23.60;;
2019;SDS011;1014;51.960;8.542;2023-01-28T07:08:37;25.25;;;23.70;;
2019;SDS011;1014;51.960;8.542;2023-01-28T07:11:05;24.95;;;23.45;;
2019;SDS011;1014;51.960;8.542;2023-01-28T07:13:34;24.10;;;22.70;;
2019;SDS011;1014;51.960;8.542;2023-01-28T07:16:01;25.73;;;24.13;;
2019;SDS011;1014;51.960;8.542;2023-01-28T07:18:28;25.42;;;23.80;;
2019;SDS011;1014;51.960;8.542;2023-01-28T07:20:55;24.60;;;23.20;;
2019;SDS011;1014;51.960;8.542;2023-01-28T07:23:22;25.00;;;23.50;;
2019;SDS011;1014;51.960;8.542;2023-01-28T07:25:49;25.13;;;23.42;;
2019;SDS011;1014;51.960;8.542;2023-01-28T07:28:16;26.63;;;24.98;;
2019;SDS011;1014;51.960;8.542;2023-01-28T07:30:47;26.48;;;24.98;;
2019;SDS011;1014;51.960;8.542;2023-01-28T07:33:14;26.05;;;24.42;;
2019;SDS011;1014;51.960;8.542;2023-01-28T07:35:41;30.35;;;27.75;;
2019;SDS011;1014;51.960;8.542;2023-01-28T07:38:08;26.67;;;24.95;;
2019;SDS011;1014;51.960;8.542;2023-01-28T07:40:35;25.85;;;24.15;;
2019;SDS011;1014;51.960;8.542;2023-01-28T07:43:02;24.52;;;23.13;;
2019;SDS011;1014;51.960;8.542;2023-01-28T07:45:31;24.70;;;23.20;;
2019;SDS011;1014;51.960;8.542;2023-01-28T07:48:00;25.38;;;23.63;;
2019;SDS011;1014;51.960;8.542;2023-01-28T07:50:28;25.83;;;24.42;;
2019;SDS011;1014;51.960;8.542;2023-01-28T07:52:55;24.02;;;22.63;;
2019;SDS011;1014;51.960;8.542;2023-01-28T07:55:23;25.25;;;23.75;;
2019;SDS011;1014;51.960;8.542;2023-01-28T07:57:50;24.25;;;22.48;;
2019;SDS011;1014;51.960;8.542;2023-01-28T08:00:18;24.70;;;23.30;;
2019;SDS011;1014;51.960;8.542;2023-01-28T08:02:45;24.58;;;23.20;;
2019;SDS011;1014;51.960;8.542;2023-01-28T08:05:15;24.70;;;22.67;;
2019;SDS011;1014;51.960;8.542;2023-01-28T08:07:42;24.88;;;23.48;;
2019;SDS011;1014;51.960;8.542;2023-01-28T08:10:09;26.70;;;25.08;;
2019;SDS011;1014;51.960;8.542;2023-01-28T08:12:36;25.00;;;23.50;;
2019;SDS011;1014;51.960;8.542;2023-01-28T08:15:04;26.15;;;24.60;;
2019;SDS011;1014;51.960;8.542;2023-01-28T08:17:31;25.38;;;23.85;;
2019;SDS011;1014;51.960;8.542;2023-01-28T08:19:58;25.60;;;23.77;;
2019;SDS011;1014;51.960;8.542;2023-01-28T08:22:27;23.98;;;22.58;;
2019;SDS011;1014;51.960;8.542;2023-01-28T08:24:54;29.45;;;27.80;;
2019;SDS011;1014;51.960;8.542;2023-01-28T08:27:21;27.13;;;25.60;;
2019;SDS011;1014;51.960;8.542;2023-01-28T08:29:48;25.10;;;23.30;;
2019;SDS011;1014;51.960;8.542;2023-01-28T08:32:15;25.85;;;23.92;;
2019;SDS011;1014;51.960;8.542;2023-01-28T08:34:42;25.17;;;23.60;;
2019;SDS011;1014;51.960;8.542;2023-01-28T08:37:10;27.17;;;25.48;;
2019;SDS011;1014;51.960;8.542;2023-01-28T08:39:38;34.55;;;31.70;;
2019;SDS011;1014;51.960;8.542;2023-01-28T08:42:05;24.60;;;22.90;;
2019;SDS011;1014;51.960;8.542;2023-01-28T08:44:32;32.05;;;30.05;;
2019;SDS011;1014;51.960;8.542;2023-01-28T08:46:59;28.63;;;26.88;;
2019;SDS011;1014;51.960;8.542;2023-01-28T08:49:26;24.42;;;22.95;;
2019;SDS011;1014;51.960;8.542;2023-01-28T08:51:53;24.45;;;23.05;;
2019;SDS011;1014;51.960;8.542;2023-01-28T08:54:20;25.90;;;24.40;;
2019;SDS011;1014;51.960;8.542;2023-01-28T08:56:49;25.70;;;24.30;;
2019;SDS011;1014;51.960;8.542;2023-01-28T08:59:16;23.88;;;22.48;;
2019;SDS011;1014;51.960;8.542;2023-01-28T09:01:43;23.90;;;22.38;;
2019;SDS011;1014;51.960;8.542;2023-01-28T09:04:10;23.92;;;22.40;;
2019;SDS011;1014;51.960;8.542;2023-01-28T09:06:37;23.85;;;22.55;;
2019;SDS011;1014;51.960;8.542;2023-01-28T09:09:04;26.25;;;24.58;;
2019;SDS011;1014;51.960;8.542;2023-01-28T09:11:31;25.95;;;24.25;;
2019;SDS011;1014;51.960;8.542;2023-01-28T09:13:59;25.65;;;24.15;;
2019;SDS011;1014;51.960;8.542;2023-01-28T09:16:26;25.90;;;24.45;;
2019;SDS011;1014;51.960;8.542;2023-01-28T09:18:53;25.55;;;24.02;;
2019;SDS011;1014;51.960;8.542;2023-01-28T09:21:20;25.48;;;23.98;;
2019;SDS011;1014;51.960;8.542;2023-01-28T09:23:47;27.20;;;25.60;;
2019;SDS011;1014;51.960;8.542;2023-01-28T09:26:14;26.52;;;24.73;;
2019;SDS011;1014;51.960;8.542;2023-01-28T09:28:41;25.27;;;23.88;;
2019;SDS011;1014;51.960;8.542;2023-01-28T09:31:10;26.50;;;24.90;;
2019;SDS011;1014;51.960;8.542;2023-01-28T09:33:38;25.45;;;23.88;;
2019;SDS011;1014;51.960;8.542;2023-01-28T09:36:06;24.40;;;22.90;;
2019;SDS011;1014;51.960;8.542;2023-01-28T09:38:33;26.20;;;24.30;;
2019;SDS011;1014;51.960;8.542;2023-01-28T09:41:01;25.80;;;23.90;;
2019;SDS011;1014;51.960;8.542;2023-01-28T09:46:16;26.27;;;24.58;;
2019;SDS011;1014;51.960;8.542;2023-01-28T09:48:44;25.55;;;23.85;;
2019;SDS011;1014;51.960;8.542;2023-01-28T09:51:16;26.77;;;24.98;;
2019;SDS011;1014;51.960;8.542;2023-01-28T09:53:46;25.45;;;23.95;;
2019;SDS011;1014;51.960;8.542;2023-01-28T09:56:15;25.65;;;24.10;;
2019;SDS011;1014;51.960;8.542;2023-01-28T09:58:44;24.38;;;22.92;;
2019;SDS011;1014;51.960;8.542;2023-01-28T10:01:19;24.67;;;23.15;;
2019;SDS011;1014;51.960;8.542;2023-01-28T10:03:53;25.67;;;24.08;;
2019;SDS011;1014;51.960;8.542;2023-01-28T10:06:24;25.83;;;24.33;;
2019;SDS011;1014;51.960;8.542;2023-01-28T10:08:57;25.20;;;23.70;;
2019;SDS011;1014;51.960;8.542;2023-01-28T10:11:28;24.88;;;23.48;;
2019;SDS011;1014;51.960;8.542;2023-01-28T10:14:02;25.27;;;23.67;;
2019;SDS011;1014;51.960;8.542;2023-01-28T10:16:35;25.35;;;23.58;;
2019;SDS011;1014;51.960;8.542;2023-01-28T10:19:05;25.77;;;24.35;;
2019;SDS011;1014;51.960;8.542;2023-01-28T10:21:34;26.23;;;24.63;;
2019;SDS011;1014;51.960;8.542;2023-01-28T10:24:04;26.52;;;24.90;;
2019;SDS011;1014;51.960;8.542;2023-01-28T10:26:33;27.00;;;25.33;;
2019;SDS011;1014;51.960;8.542;2023-01-28T10:29:02;25.52;;;24.13;;
2019;SDS011;1014;51.960;8.542;2023-01-28T10:31:31;26.70;;;25.08;;
2019;SDS011;1014;51.960;8.542;2023-01-28T10:34:02;26.35;;;24.75;;
2019;SDS011;1014;51.960;8.542;2023-01-28T10:36:29;27.52;;;25.58;;
2019;SDS011;1014;51.960;8.542;2023-01-28T10:38:56;26.50;;;24.88;;
2019;SDS011;1014;51.960;8.542;2023-01-28T10:41:23;26.20;;;24.33;;
2019;SDS011;1014;51.960;8.542;2023-01-28T10:43:50;26.60;;;24.77;;
2019;SDS011;1014;51.960;8.542;2023-01-28T10:46:18;26.73;;;25.05;;
2019;SDS011;1014;51.960;8.542;2023-01-28T10:48:47;26.00;;;24.40;;
2019;SDS011;1014;51.960;8.542;2023-01-28T10:51:29;26.17;;;24.38;;
2019;SDS011;1014;51.960;8.542;2023-01-28T10:53:56;26.85;;;25.25;;
2019;SDS011;1014;51.960;8.542;2023-01-28T10:56:24;27.65;;;26.05;;
2019;SDS011;1014;51.960;8.542;2023-01-28T10:58:53;26.88;;;25.17;;
2019;SDS011;1014;51.960;8.542;2023-01-28T11:01:23;27.75;;;26.05;;
2019;SDS011;1014;51.960;8.542;2023-01-28T11:03:52;27.23;;;25.30;;
2019;SDS011;1014;51.960;8.542;2023-01-28T11:06:22;27.17;;;25.27;;
2019;SDS011;1014;51.960;8.542;2023-01-28T11:08:51;26.83;;;25.23;;
2019;SDS011;1014;51.960;8.542;2023-01-28T11:11:21;27.73;;;25.85;;
2019;SDS011;1014;51.960;8.542;2023-01-28T11:13:50;26.45;;;24.75;;
2019;SDS011;1014;51.960;8.542;2023-01-28T11:16:18;25.52;;;23.92;;
2019;SDS011;1014;51.960;8.542;2023-01-28T11:18:46;25.90;;;24.40;;
2019;SDS011;1014;51.960;8.542;2023-01-28T11:21:14;25.55;;;23.85;;
2019;SDS011;1014;51.960;8.542;2023-01-28T11:23:46;26.88;;;25.25;;
2019;SDS011;1014;51.960;8.542;2023-01-28T11:26:16;26.77;;;24.98;;
2019;SDS011;1014;51.960;8.542;2023-01-28T11:28:45;27.38;;;25.35;;
2019;SDS011;1014;51.960;8.542;2023-01-28T11:31:12;27.88;;;26.27;;
2019;SDS011;1014;51.960;8.542;2023-01-28T11:33:42;26.20;;;24.58;;
2019;SDS011;1014;51.960;8.542;2023-01-28T11:36:12;25.90;;;24.30;;
2019;SDS011;1014;51.960;8.542;2023-01-28T11:38:46;27.08;;;25.38;;
2019;SDS011;1014;51.960;8.542;2023-01-28T11:41:13;26.27;;;24.58;;
2019;SDS011;1014;51.960;8.542;2023-01-28T11:43:42;27.08;;;25.25;;
2019;SDS011;1014;51.960;8.542;2023-01-28T11:46:16;25.95;;;24.25;;
2019;SDS011;1014;51.960;8.542;2023-01-28T11:48:48;26.02;;;23.98;;
2019;SDS011;1014;51.960;8.542;2023-01-28T11:51:21;25.85;;;24.25;;
2019;SDS011;1014;51.960;8.542;2023-01-28T11:53:53;26.73;;;25.20;;
2019;SDS011;1014;51.960;8.542;2023-01-28T11:59:14;26.33;;;24.63;;
2019;SDS011;1014;51.960;8.542;2023-01-28T12:01:46;26.45;;;24.60;;
2019;SDS011;1014;51.960;8.542;2023-01-28T12:04:19;26.30;;;24.50;;
2019;SDS011;1014;51.960;8.542;2023-01-28T12:06:51;26.83;;;25.02;;
2019;SDS011;1014;51.960;8.542;2023-01-28T12:09:23;26.77;;;24.75;;
2019;SDS011;1014;51.960;8.542;2023-01-28T12:11:56;25.27;;;23.63;;
2019;SDS011;1014;51.960;8.542;2023-01-28T12:14:46;27.40;;;25.70;;
2019;SDS011;1014;51.960;8.542;2023-01-28T12:17:18;26.50;;;24.77;;
2019;SDS011;1014;51.960;8.542;2023-01-28T12:19:50;25.17;;;23.67;;
2019;SDS011;1014;51.960;8.542;2023-01-28T12:22:26;25.73;;;24.23;;
2019;SDS011;1014;51.960;8.542;2023-01-28T12:25:01;26.05;;;24.35;;
2019;SDS011;1014;51.960;8.542;2023-01-28T12:27:33;25.50;;;23.92;;
2019;SDS011;1014;51.960;8.542;2023-01-28T12:30:10;26.75;;;25.05;;
2019;SDS011;1014;51.960;8.542;2023-01-28T12:32:43;26.20;;;24.70;;
2019;SDS011;1014;51.960;8.542;2023-01-28T12:35:21;27.25;;;25.45;;
2019;SDS011;1014;51.960;8.542;2023-01-28T12:37:58;26.58;;;24.75;;
2019;SDS011;1014;51.960;8.542;2023-01-28T12:40:39;26.00;;;24.40;;
2019;SDS011;1014;51.960;8.542;2023-01-28T12:43:10;25.83;;;24.33;;
2019;SDS011;1014;51.960;8.542;2023-01-28T12:45:42;25.75;;;24.25;;
2019;SDS011;1014;51.960;8.542;2023-01-28T12:48:11;25.23;;;23.50;;
2019;SDS011;1014;51.960;8.542;2023-01-28T12:50:40;25.73;;;24.02;;
2019;SDS011;1014;51.960;8.542;2023-01-28T12:53:12;27.00;;;25.02;;
2019;SDS011;1014;51.960;8.542;2023-01-28T12:55:43;27.58;;;25.38;;
2019;SDS011;1014;51.960;8.542;2023-01-28T12:58:13;26.40;;;24.80;;
2019;SDS011;1014;51.960;8.542;2023-01-28T13:00:44;27.15;;;25.50;;
2019;SDS011;1014;51.960;8.542;2023-01-28T13:03:13;27.63;;;25.83;;
2019;SDS011;1014;51.960;8.542;2023-01-28T13:05:43;27.77;;;25.63;;
2019;SDS011;1014;51.960;8.542;2023-01-28T13:08:12;26.77;;;25.13;;
2019;SDS011;1014;51.960;8.542;2023-01-28T13:10:42;26.33;;;24.58;;
2019;SDS011;1014;51.960;8.542;2023-01-28T13:13:12;27.58;;;25.70;;
2019;SDS011;1014;51.960;8.542;2023-01-28T13:15:41;27.20;;;25.00;;
2019;SDS011;1014;51.960;8.542;2023-01-28T13:20:53;27.40;;;25.65;;
2019;SDS011;1014;51.960;8.542;2023-01-28T13:23:21;27.13;;;25.23;;
2019;SDS011;1014;51.960;8.542;2023-01-28T13:25:48;27.98;;;26.23;;
2019;SDS011;1014;51.960;8.542;2023-01-28T13:28:24;26.23;;;24.60;;
2019;SDS011;1014;51.960;8.542;2023-01-28T13:30:51;27.25;;;25.55;;
2019;SDS011;1014;51.960;8.542;2023-01-28T13:33:26;26.40;;;24.50;;
2019;SDS011;1014;51.960;8.542;2023-01-28T13:35:56;25.45;;;23.95;;
2019;SDS011;1014;51.960;8.542;2023-01-28T13:38:23;27.80;;;26.00;;
2019;SDS011;1014;51.960;8.542;2023-01-28T13:40:54;27.90;;;26.00;;
2019;SDS011;1014;51.960;8.542;2023-01-28T13:43:25;27.52;;;25.83;;
2019;SDS011;1014;51.960;8.542;2023-01-28T13:45:56;28.35;;;26.25;;
2019;SDS011;1014;51.960;8.542;2023-01-28T13:48:25;27.02;;;25.33;;
2019;SDS011;1014;51.960;8.542;2023-01-28T13:50:53;27.85;;;26.13;;
2019;SDS011;1014;51.960;8.542;2023-01-28T13:53:26;28.25;;;26.45;;
2019;SDS011;1014;51.960;8.542;2023-01-28T13:55:55;27.90;;;26.13;;
2019;SDS011;1014;51.960;8.542;2023-01-28T13:58:43;28.70;;;26.65;;
2019;SDS011;1014;51.960;8.542;2023-01-28T14:01:21;27.75;;;25.83;;
2019;SDS011;1014;51.960;8.542;2023-01-28T14:04:14;28.33;;;26.38;;
2019;SDS011;1014;51.960;8.542;2023-01-28T14:06:51;27.27;;;25.27;;
2019;SDS011;1014;51.960;8.542;2023-01-28T14:09:27;27.33;;;25.58;;
2019;SDS011;1014;51.960;8.542;2023-01-28T14:12:02;28.35;;;26.55;;
2019;SDS011;1014;51.960;8.542;2023-01-28T14:14:38;27.95;;;25.77;;
2019;SDS011;1014;51.960;8.542;2023-01-28T14:17:09;27.92;;;26.23;;
2019;SDS011;1014;51.960;8.542;2023-01-28T14:19:39;27.08;;;25.38;;
2019;SDS011;1014;51.960;8.542;2023-01-28T14:22:06;28.90;;;26.75;;
2019;SDS011;1014;51.960;8.542;2023-01-28T14:24:35;27.10;;;25.40;;
2019;SDS011;1014;51.960;8.542;2023-01-28T14:27:04;28.17;;;26.42;;
2019;SDS011;1014;51.960;8.542;2023-01-28T14:29:36;27.83;;;26.10;;
2019;SDS011;1014;51.960;8.542;2023-01-28T14:32:10;27.45;;;25.75;;
2019;SDS011;1014;51.960;8.542;2023-01-28T14:34:38;27.33;;;25.73;;
2019;SDS011;1014;51.960;8.542;2023-01-28T14:37:06;26.90;;;25.20;;
2019;SDS011;1014;51.960;8.542;2023-01-28T14:39:39;28.05;;;26.10;;
2019;SDS011;1014;51.960;8.542;2023-01-28T14:42:10;26.35;;;24.73;;
2019;SDS011;1014;51.960;8.542;2023-01-28T14:44:39;26.92;;;25.20;;
2019;SDS011;1014;51.960;8.542;2023-01-28T14:47:26;28.10;;;26.20;;
2019;SDS011;1014;51.960;8.542;2023-01-28T14:50:07;27.98;;;26.17;;
2019;SDS011;1014;51.960;8.542;2023-01-28T14:52:44;28.80;;;26.92;;
2019;SDS011;1014;51.960;8.542;2023-01-28T14:55:20;29.63;;;27.52;;
2019;SDS011;1014;51.960;8.542;2023-01-28T14:57:49;28.98;;;27.00;;
2019;SDS011;1014;51.960;8.542;2023-01-28T15:00:19;27.63;;;25.73;;
2019;SDS011;1014;51.960;8.542;2023-01-28T15:02:46;29.20;;;27.30;;
2019;SDS011;1014;51.960;8.542;2023-01-28T15:05:15;29.52;;;27.50;;
2019;SDS011;1014;51.960;8.542;2023-01-28T15:07:42;30.83;;;28.73;;
2019;SDS011;1014;51.960;8.542;2023-01-28T15:10:13;30.52;;;28.35;;